Hillsborough, New Jersey
Current Conditions -  °F | °C
As of 2:53 AM on Friday 19 Dec 2014 (Local Time) from KSMQ Reporting Station
Overcast Overcast  
Wind Chill: 33°   Ceiling: 3800
Heat Index: 38°   Visibility: 10mi
Dew Point: 23°   Wind: 7mph
Humidity: 55%   Direction: 300°WNW
Pressure: 29.99"   Gusts: NA
Location:  40.5°N, 74.69°W
Report Text: KSMQ 190753Z AUTO 30006KT 10SM OVC038 03/M05 A2999 RMK AO2 SLP156 T00331050
Loading
Personal Weather Stations






























Interactive Weather Map New forecast layout! Learn more

10-Day Weather Forecast

Advertisements
Track Severe Weather on mobile